Time;durP1;ratioP1;P1;durP2;ratioP2;P2;SDS_P1;SDS_P2;PMS_P1;PMS_P2;Temp;Humidity;BMP_temperature;BMP_pressure;BME280_temperature;BME280_humidity;BME280_pressure;Samples;Min_cycle;Max_cycle;Signal;HPM_P1;HPM_P2
2021/04/30 00:00:22;;;;;;;69.40;20.23;;;;;;;;;;5053068;28;20078;-66
2021/04/30 00:02:47;;;;;;;53.03;20.25;;;;;;;;;;5052597;28;20044;-66
2021/04/30 00:05:12;;;;;;;53.33;18.70;;;;;;;;;;5052779;28;20033;-66
2021/04/30 00:07:38;;;;;;;52.38;19.55;;;;;;;;;;5052747;28;20123;-66
2021/04/30 00:10:04;;;;;;;51.13;19.10;;;;;;;;;;5052687;28;20036;-66
2021/04/30 00:12:29;;;;;;;55.00;19.95;;;;;;;;;;5052012;28;20033;-66
2021/04/30 00:14:54;;;;;;;66.22;20.73;;;;;;;;;;5052449;28;20012;-66
2021/04/30 00:17:20;;;;;;;65.18;20.60;;;;;;;;;;5053007;28;20048;-66
2021/04/30 00:19:45;;;;;;;63.42;20.13;;;;;;;;;;5053002;28;20045;-66
2021/04/30 00:22:10;;;;;;;53.83;19.33;;;;;;;;;;5052929;28;20040;-66
2021/04/30 00:24:36;;;;;;;81.65;23.05;;;;;;;;;;5053067;28;20040;-66
2021/04/30 00:27:02;;;;;;;87.28;21.20;;;;;;;;;;5052863;28;20052;-66
2021/04/30 00:29:27;;;;;;;47.15;18.33;;;;;;;;;;5052893;28;20446;-66
2021/04/30 00:31:52;;;;;;;75.60;21.02;;;;;;;;;;5052899;28;20033;-66
2021/04/30 00:34:18;;;;;;;76.80;20.65;;;;;;;;;;5053181;28;20021;-66
2021/04/30 00:36:43;;;;;;;69.57;20.23;;;;;;;;;;5052792;28;20013;-66
2021/04/30 00:39:08;;;;;;;52.95;18.50;;;;;;;;;;5052975;28;20063;-66
2021/04/30 00:41:34;;;;;;;45.70;18.17;;;;;;;;;;5052613;28;20390;-66
2021/04/30 00:44:03;;;;;;;56.58;18.73;;;;;;;;;;5052965;28;20017;-66
2021/04/30 00:46:28;;;;;;;45.35;17.98;;;;;;;;;;5052649;28;20028;-66
2021/04/30 00:48:53;;;;;;;50.25;18.83;;;;;;;;;;5052910;28;20029;-66
2021/04/30 00:51:19;;;;;;;53.80;19.33;;;;;;;;;;5052607;28;20017;-66
2021/04/30 00:53:44;;;;;;;47.00;18.17;;;;;;;;;;5048018;28;20138;-66
2021/04/30 00:56:09;;;;;;;53.17;19.30;;;;;;;;;;5051730;28;20438;-66
2021/04/30 00:58:35;;;;;;;56.72;19.38;;;;;;;;;;5052211;28;20416;-66
2021/04/30 01:01:00;;;;;;;59.33;18.58;;;;;;;;;;5051894;28;20041;-66
2021/04/30 01:03:26;;;;;;;62.83;19.92;;;;;;;;;;5052914;28;20025;-66
2021/04/30 01:05:51;;;;;;;68.38;20.90;;;;;;;;;;5052581;28;20048;-66
2021/04/30 01:08:16;;;;;;;74.25;21.55;;;;;;;;;;5052277;28;20044;-66
2021/04/30 01:10:42;;;;;;;66.38;22.42;;;;;;;;;;5052167;28;20075;-66
2021/04/30 01:13:07;;;;;;;91.75;24.15;;;;;;;;;;5052664;28;20013;-66
2021/04/30 01:15:32;;;;;;;99.20;24.20;;;;;;;;;;5052450;28;20040;-66
2021/04/30 01:17:59;;;;;;;100.70;24.58;;;;;;;;;;5052609;28;20478;-66
2021/04/30 01:20:24;;;;;;;57.67;20.15;;;;;;;;;;5052348;28;20040;-66
2021/04/30 01:22:51;;;;;;;106.18;25.20;;;;;;;;;;5053536;28;20033;-66
2021/04/30 01:25:21;;;;;;;120.45;25.08;;;;;;;;;;5055060;28;20401;-66
2021/04/30 01:27:47;;;;;;;68.97;21.67;;;;;;;;;;5056169;28;20061;-66
2021/04/30 01:30:14;;;;;;;67.35;22.20;;;;;;;;;;5055968;28;20086;-66
2021/04/30 01:32:40;;;;;;;75.40;22.92;;;;;;;;;;5056034;28;20052;-66
2021/04/30 01:35:06;;;;;;;72.13;22.42;;;;;;;;;;5055941;28;20462;-66
2021/04/30 01:37:31;;;;;;;91.68;24.88;;;;;;;;;;5055783;28;20122;-66
2021/04/30 01:39:57;;;;;;;88.32;23.38;;;;;;;;;;5055632;28;20084;-66
2021/04/30 01:42:22;;;;;;;78.53;23.90;;;;;;;;;;5055286;28;20098;-66
2021/04/30 01:44:48;;;;;;;98.45;25.48;;;;;;;;;;5055926;28;20033;-66
2021/04/30 01:47:13;;;;;;;77.10;23.52;;;;;;;;;;5055570;28;20098;-66
2021/04/30 01:49:38;;;;;;;76.15;23.20;;;;;;;;;;5055729;28;20166;-65
2021/04/30 01:52:04;;;;;;;84.20;25.55;;;;;;;;;;5055478;28;20033;-66
2021/04/30 01:54:29;;;;;;;80.28;24.10;;;;;;;;;;5055643;28;20104;-66
2021/04/30 01:56:54;;;;;;;69.78;22.58;;;;;;;;;;5055155;28;20048;-66
2021/04/30 01:59:20;;;;;;;78.43;23.65;;;;;;;;;;5055075;28;20040;-66
2021/04/30 02:01:45;;;;;;;78.22;24.52;;;;;;;;;;5055062;28;20452;-66
2021/04/30 02:04:11;;;;;;;78.38;23.45;;;;;;;;;;5055378;28;20131;-66
2021/04/30 02:06:38;;;;;;;78.97;24.15;;;;;;;;;;5055567;28;20060;-66
2021/04/30 02:09:04;;;;;;;73.55;23.38;;;;;;;;;;5055351;28;20031;-66
2021/04/30 02:11:29;;;;;;;76.97;22.33;;;;;;;;;;5055148;28;20509;-65
2021/04/30 02:13:54;;;;;;;76.78;22.92;;;;;;;;;;5055280;28;20036;-66
2021/04/30 02:16:20;;;;;;;83.47;24.30;;;;;;;;;;5054770;28;20036;-66
2021/04/30 02:18:45;;;;;;;86.60;22.85;;;;;;;;;;5054786;28;20021;-66
2021/04/30 02:21:10;;;;;;;79.28;21.90;;;;;;;;;;5055029;28;20028;-66
2021/04/30 02:23:36;;;;;;;111.00;26.25;;;;;;;;;;5055137;28;20029;-66
2021/04/30 02:26:01;;;;;;;136.80;26.55;;;;;;;;;;5054885;28;20013;-66
2021/04/30 02:28:26;;;;;;;71.47;23.25;;;;;;;;;;5055305;28;20041;-66
2021/04/30 02:30:52;;;;;;;95.75;24.63;;;;;;;;;;5054822;28;20029;-66
2021/04/30 02:33:17;;;;;;;91.95;24.27;;;;;;;;;;5054949;28;20100;-66
2021/04/30 02:35:46;;;;;;;82.00;24.58;;;;;;;;;;5053516;28;20106;-66
2021/04/30 02:38:13;;;;;;;82.32;24.13;;;;;;;;;;5054808;28;20086;-66
2021/04/30 02:40:39;;;;;;;58.90;21.10;;;;;;;;;;5054644;28;20048;-66
2021/04/30 02:43:09;;;;;;;94.15;23.63;;;;;;;;;;5054619;28;20028;-66
2021/04/30 02:45:35;;;;;;;74.90;22.88;;;;;;;;;;5054862;28;20485;-66
2021/04/30 02:48:01;;;;;;;105.82;24.58;;;;;;;;;;5054295;28;20055;-66
2021/04/30 02:50:28;;;;;;;101.50;24.88;;;;;;;;;;5054424;28;20106;-66
2021/04/30 02:52:53;;;;;;;81.72;23.92;;;;;;;;;;5053233;28;20457;-66
2021/04/30 02:55:23;;;;;;;92.45;25.08;;;;;;;;;;5054473;28;20045;-66
2021/04/30 02:57:52;;;;;;;76.90;23.08;;;;;;;;;;5054310;28;20025;-66
2021/04/30 03:00:18;;;;;;;83.93;23.40;;;;;;;;;;5047362;28;20033;-66
2021/04/30 03:02:44;;;;;;;105.97;25.38;;;;;;;;;;5052098;28;20021;-66
2021/04/30 03:05:09;;;;;;;94.13;24.33;;;;;;;;;;5052986;28;20535;-66
2021/04/30 03:07:35;;;;;;;77.78;23.50;;;;;;;;;;5054099;28;20025;-66
2021/04/30 03:10:00;;;;;;;84.75;22.02;;;;;;;;;;5054096;28;20107;-66
2021/04/30 03:12:26;;;;;;;101.70;25.10;;;;;;;;;;5053941;28;20037;-66
2021/04/30 03:14:51;;;;;;;78.38;22.13;;;;;;;;;;5052632;28;20175;-66
2021/04/30 03:17:16;;;;;;;79.07;22.40;;;;;;;;;;5053536;28;20021;-66
2021/04/30 03:19:41;;;;;;;74.22;22.02;;;;;;;;;;5053878;28;20131;-66
2021/04/30 03:22:07;;;;;;;86.55;22.60;;;;;;;;;;5053736;28;20033;-66
2021/04/30 03:24:32;;;;;;;119.05;25.15;;;;;;;;;;5053927;28;20017;-66
2021/04/30 03:26:58;;;;;;;82.55;23.48;;;;;;;;;;5053512;28;20544;-66
2021/04/30 03:29:23;;;;;;;76.95;22.38;;;;;;;;;;5052547;28;20063;-66
2021/04/30 03:31:49;;;;;;;87.05;22.65;;;;;;;;;;5053612;28;20095;-66
2021/04/30 03:34:14;;;;;;;72.03;20.88;;;;;;;;;;5053776;28;20041;-66
2021/04/30 03:36:39;;;;;;;68.55;21.52;;;;;;;;;;5053699;28;20068;-66
2021/04/30 03:39:06;;;;;;;92.30;22.67;;;;;;;;;;5053341;28;20057;-65
2021/04/30 03:41:31;;;;;;;84.38;22.63;;;;;;;;;;5053415;28;20428;-66
2021/04/30 03:43:57;;;;;;;96.15;24.08;;;;;;;;;;5053590;28;20111;-65
2021/04/30 03:46:22;;;;;;;101.70;24.25;;;;;;;;;;5052988;28;20028;-66
2021/04/30 03:48:47;;;;;;;98.38;24.02;;;;;;;;;;5053410;28;20067;-66
2021/04/30 03:51:13;;;;;;;82.53;22.38;;;;;;;;;;5053332;28;20115;-65
2021/04/30 03:53:38;;;;;;;81.72;22.48;;;;;;;;;;5053184;28;20457;-65
2021/04/30 03:56:04;;;;;;;80.85;23.60;;;;;;;;;;5052937;28;20041;-65
2021/04/30 03:58:29;;;;;;;86.38;23.27;;;;;;;;;;5053390;28;20033;-65
2021/04/30 04:00:54;;;;;;;87.97;24.98;;;;;;;;;;5052800;28;20072;-65
2021/04/30 04:03:20;;;;;;;89.22;24.30;;;;;;;;;;5053295;28;20029;-65
2021/04/30 04:05:45;;;;;;;76.80;24.48;;;;;;;;;;5052854;28;20028;-65
2021/04/30 04:08:10;;;;;;;76.28;23.73;;;;;;;;;;5053636;28;20072;-66
2021/04/30 04:10:36;;;;;;;79.97;23.08;;;;;;;;;;5053160;28;20064;-65
2021/04/30 04:13:02;;;;;;;85.10;23.77;;;;;;;;;;5053114;28;20416;-65
2021/04/30 04:15:27;;;;;;;95.43;25.30;;;;;;;;;;5052874;28;20103;-65
2021/04/30 04:17:52;;;;;;;91.53;24.92;;;;;;;;;;5052945;28;20036;-65
2021/04/30 04:20:18;;;;;;;95.45;24.25;;;;;;;;;;5053049;28;20044;-65
2021/04/30 04:22:43;;;;;;;87.57;23.27;;;;;;;;;;5053044;28;20829;-65
2021/04/30 04:25:09;;;;;;;74.53;22.98;;;;;;;;;;5053047;28;20059;-65
2021/04/30 04:27:34;;;;;;;83.38;24.92;;;;;;;;;;5052655;28;20028;-66
2021/04/30 04:30:00;;;;;;;86.80;24.58;;;;;;;;;;5052929;28;20021;-65
2021/04/30 04:32:26;;;;;;;102.53;26.13;;;;;;;;;;5052837;28;20033;-65
2021/04/30 04:34:51;;;;;;;108.53;26.45;;;;;;;;;;5052923;28;20040;-65
2021/04/30 04:37:16;;;;;;;93.82;24.33;;;;;;;;;;5052503;28;20017;-66
2021/04/30 04:39:42;;;;;;;90.43;26.08;;;;;;;;;;5052613;28;20045;-65
2021/04/30 04:42:07;;;;;;;126.20;26.80;;;;;;;;;;5052691;28;20033;-66
2021/04/30 04:44:33;;;;;;;89.45;24.38;;;;;;;;;;5052909;28;20127;-65
2021/04/30 04:46:58;;;;;;;89.43;25.30;;;;;;;;;;5052698;28;20040;-66
2021/04/30 04:49:24;;;;;;;85.00;26.35;;;;;;;;;;5052411;28;20405;-65
2021/04/30 04:51:50;;;;;;;106.55;27.83;;;;;;;;;;5052381;28;20013;-65
2021/04/30 04:54:15;;;;;;;95.65;26.45;;;;;;;;;;5052836;28;20112;-65
2021/04/30 04:56:41;;;;;;;128.68;29.15;;;;;;;;;;5052641;28;20358;-65
2021/04/30 04:59:07;;;;;;;88.43;26.35;;;;;;;;;;5055574;28;20029;-65
2021/04/30 05:01:32;;;;;;;97.63;25.08;;;;;;;;;;5056405;28;20033;-65
2021/04/30 05:03:58;;;;;;;96.60;26.67;;;;;;;;;;5056544;28;20487;-65
2021/04/30 05:06:23;;;;;;;97.70;26.00;;;;;;;;;;5056326;28;20104;-65
2021/04/30 05:08:48;;;;;;;85.30;25.77;;;;;;;;;;5056394;28;20079;-66
2021/04/30 05:11:14;;;;;;;84.20;25.23;;;;;;;;;;5056276;28;20079;-66
2021/04/30 05:13:39;;;;;;;94.43;24.80;;;;;;;;;;5056323;28;20075;-65
2021/04/30 05:16:05;;;;;;;92.82;25.20;;;;;;;;;;5054971;28;20029;-66
2021/04/30 05:18:31;;;;;;;100.15;25.88;;;;;;;;;;5056602;28;20029;-66
2021/04/30 05:20:57;;;;;;;71.07;24.10;;;;;;;;;;5056134;28;20035;-66
2021/04/30 05:23:22;;;;;;;80.05;23.83;;;;;;;;;;5056224;28;20032;-66
2021/04/30 05:25:49;;;;;;;100.22;24.92;;;;;;;;;;5056046;28;20037;-66
2021/04/30 05:28:14;;;;;;;100.93;24.65;;;;;;;;;;5056158;28;20032;-66
2021/04/30 05:30:40;;;;;;;111.40;26.77;;;;;;;;;;5055727;28;20029;-66
2021/04/30 05:33:05;;;;;;;97.78;24.88;;;;;;;;;;5056025;28;20029;-66
2021/04/30 05:35:30;;;;;;;83.10;23.15;;;;;;;;;;5055729;28;20020;-66
2021/04/30 05:37:56;;;;;;;74.28;23.67;;;;;;;;;;5056022;28;20240;-66
2021/04/30 05:40:22;;;;;;;99.82;24.58;;;;;;;;;;5055920;28;20056;-66
2021/04/30 05:42:47;;;;;;;82.38;24.45;;;;;;;;;;5055630;28;20473;-66
2021/04/30 05:45:13;;;;;;;75.95;23.45;;;;;;;;;;5055609;28;20692;-66
2021/04/30 05:47:38;;;;;;;69.22;23.63;;;;;;;;;;5055678;28;20029;-66
2021/04/30 05:50:05;;;;;;;73.72;23.80;;;;;;;;;;5055438;28;20571;-66
2021/04/30 05:52:30;;;;;;;67.82;23.77;;;;;;;;;;5055597;28;20043;-66
2021/04/30 05:54:55;;;;;;;66.80;23.63;;;;;;;;;;5055643;28;20029;-66
2021/04/30 05:57:21;;;;;;;65.35;21.25;;;;;;;;;;5055498;28;20112;-66
2021/04/30 05:59:46;;;;;;;55.17;19.92;;;;;;;;;;5055453;28;20243;-66
2021/04/30 06:02:11;;;;;;;58.45;21.52;;;;;;;;;;5055020;28;20063;-66
2021/04/30 06:04:37;;;;;;;67.18;21.33;;;;;;;;;;5052872;28;20033;-66
2021/04/30 06:07:02;;;;;;;50.10;18.40;;;;;;;;;;5054532;28;20032;-66
2021/04/30 06:09:27;;;;;;;55.03;19.27;;;;;;;;;;5053853;28;20040;-67
2021/04/30 06:11:53;;;;;;;58.33;19.30;;;;;;;;;;5055240;28;20028;-66
2021/04/30 06:14:19;;;;;;;75.57;20.77;;;;;;;;;;5055283;28;20108;-66
2021/04/30 06:16:45;;;;;;;77.20;20.92;;;;;;;;;;5054860;28;20485;-66
2021/04/30 06:19:10;;;;;;;58.38;20.90;;;;;;;;;;5055148;28;20032;-66
2021/04/30 06:21:35;;;;;;;56.13;19.60;;;;;;;;;;5055002;28;20048;-66
2021/04/30 06:24:01;;;;;;;67.53;20.77;;;;;;;;;;5055178;28;20040;-66
2021/04/30 06:26:27;;;;;;;81.93;23.92;;;;;;;;;;5054832;28;20025;-66
2021/04/30 06:28:52;;;;;;;73.05;23.75;;;;;;;;;;5055066;28;20041;-66
2021/04/30 06:31:17;;;;;;;59.30;22.77;;;;;;;;;;5054823;28;20033;-66
2021/04/30 06:33:43;;;;;;;60.03;22.52;;;;;;;;;;5053598;28;20053;-67
2021/04/30 06:36:08;;;;;;;45.55;19.88;;;;;;;;;;5054779;28;20033;-67
2021/04/30 06:38:34;;;;;;;56.20;21.48;;;;;;;;;;5054749;28;20033;-67
2021/04/30 06:40:59;;;;;;;56.17;21.95;;;;;;;;;;5054544;28;20471;-67
2021/04/30 06:43:24;;;;;;;55.63;20.63;;;;;;;;;;5054664;28;20457;-66
2021/04/30 06:45:50;;;;;;;53.05;21.80;;;;;;;;;;5054571;28;20029;-66
2021/04/30 06:48:15;;;;;;;49.42;21.77;;;;;;;;;;5054643;28;20082;-66
2021/04/30 06:50:40;;;;;;;50.58;20.13;;;;;;;;;;5054820;28;20029;-66
2021/04/30 06:53:06;;;;;;;52.17;22.05;;;;;;;;;;5054390;28;20033;-64
2021/04/30 06:55:31;;;;;;;55.58;20.75;;;;;;;;;;5054459;28;20021;-67
2021/04/30 06:57:57;;;;;;;47.50;21.08;;;;;;;;;;5054322;28;20037;-67
2021/04/30 07:00:22;;;;;;;43.40;20.38;;;;;;;;;;5054367;28;20037;-67
2021/04/30 07:02:47;;;;;;;44.83;20.75;;;;;;;;;;5054109;28;20020;-67
2021/04/30 07:05:13;;;;;;;47.42;24.80;;;;;;;;;;5054304;28;20037;-67
2021/04/30 07:07:39;;;;;;;67.47;32.53;;;;;;;;;;5054024;28;20074;-67
2021/04/30 07:10:05;;;;;;;45.03;26.52;;;;;;;;;;5054281;28;20070;-67
2021/04/30 07:12:30;;;;;;;39.25;22.08;;;;;;;;;;5053962;28;20112;-67
2021/04/30 07:14:56;;;;;;;47.85;25.38;;;;;;;;;;5053892;28;20029;-67
2021/04/30 07:17:21;;;;;;;45.55;25.35;;;;;;;;;;5053937;28;20017;-67
2021/04/30 07:19:46;;;;;;;46.85;27.30;;;;;;;;;;5054199;28;20057;-67
2021/04/30 07:22:14;;;;;;;38.08;24.13;;;;;;;;;;5053362;28;20064;-67
2021/04/30 07:24:39;;;;;;;50.88;30.30;;;;;;;;;;5053775;28;20061;-67
2021/04/30 07:27:05;;;;;;;45.25;25.65;;;;;;;;;;5053651;28;20507;-67
2021/04/30 07:29:30;;;;;;;58.83;30.67;;;;;;;;;;5053728;28;20032;-67
2021/04/30 07:31:56;;;;;;;41.22;25.80;;;;;;;;;;5053741;28;20048;-67
2021/04/30 07:34:23;;;;;;;40.05;25.33;;;;;;;;;;5045495;28;20027;-67
2021/04/30 07:36:48;;;;;;;36.50;24.52;;;;;;;;;;5051775;28;20059;-67
2021/04/30 07:39:13;;;;;;;34.17;23.63;;;;;;;;;;5052719;28;20057;-67
2021/04/30 07:41:39;;;;;;;31.95;22.00;;;;;;;;;;5052423;28;20477;-67
2021/04/30 07:44:04;;;;;;;29.05;20.50;;;;;;;;;;5052197;28;20068;-67
2021/04/30 07:46:29;;;;;;;32.67;21.75;;;;;;;;;;5052588;28;20375;-67
2021/04/30 07:48:55;;;;;;;32.42;22.92;;;;;;;;;;5052484;28;20035;-67
2021/04/30 07:51:20;;;;;;;34.70;21.90;;;;;;;;;;5052634;28;20029;-67
2021/04/30 07:53:45;;;;;;;29.98;21.02;;;;;;;;;;5051520;28;20104;-67
2021/04/30 07:56:12;;;;;;;29.20;20.67;;;;;;;;;;5052674;28;20091;-67
2021/04/30 07:58:37;;;;;;;27.38;19.20;;;;;;;;;;5052642;28;20036;-67
2021/04/30 08:01:03;;;;;;;27.35;19.35;;;;;;;;;;5045834;28;20037;-67
2021/04/30 08:03:28;;;;;;;28.90;17.88;;;;;;;;;;5047693;28;20488;-67
2021/04/30 08:05:54;;;;;;;24.58;17.58;;;;;;;;;;5049270;28;20074;-67
2021/04/30 08:08:19;;;;;;;25.20;18.02;;;;;;;;;;5049670;28;20025;-67
2021/04/30 08:10:45;;;;;;;26.08;18.02;;;;;;;;;;5049617;28;20040;-67
2021/04/30 08:13:10;;;;;;;23.77;17.35;;;;;;;;;;5049574;28;20029;-67
2021/04/30 08:15:36;;;;;;;23.23;17.52;;;;;;;;;;5048993;28;20025;-67
2021/04/30 08:18:01;;;;;;;23.50;16.80;;;;;;;;;;5047934;28;20029;-67
2021/04/30 08:20:27;;;;;;;21.30;16.27;;;;;;;;;;5044830;28;20409;-67
2021/04/30 08:22:52;;;;;;;22.75;16.65;;;;;;;;;;5049063;28;20151;-67
2021/04/30 08:25:18;;;;;;;22.65;15.77;;;;;;;;;;5049235;28;20139;-67
2021/04/30 08:27:43;;;;;;;25.10;16.92;;;;;;;;;;5039815;28;20112;-66
2021/04/30 08:30:09;;;;;;;22.25;16.42;;;;;;;;;;5043489;28;20032;-67
2021/04/30 08:32:34;;;;;;;20.63;16.30;;;;;;;;;;5045580;28;20409;-67
2021/04/30 08:35:00;;;;;;;20.88;15.30;;;;;;;;;;5049282;28;20033;-67
2021/04/30 08:37:25;;;;;;;20.92;14.93;;;;;;;;;;5048998;28;20021;-67
2021/04/30 08:39:51;;;;;;;23.05;15.02;;;;;;;;;;5048897;28;20049;-67
2021/04/30 08:42:17;;;;;;;22.70;15.82;;;;;;;;;;5048191;28;20032;-67
2021/04/30 08:44:42;;;;;;;19.48;14.82;;;;;;;;;;5037794;28;20029;-67
2021/04/30 08:47:08;;;;;;;19.98;13.32;;;;;;;;;;5046047;28;20036;-67
2021/04/30 08:49:34;;;;;;;21.10;13.35;;;;;;;;;;5045007;28;20037;-68
2021/04/30 08:51:59;;;;;;;20.02;13.27;;;;;;;;;;5046415;28;20128;-67
2021/04/30 08:54:24;;;;;;;20.20;13.55;;;;;;;;;;5046133;28;20033;-67
2021/04/30 08:56:56;;;;;;;13.35;9.50;;;;;;;;;;5036515;28;20037;-67
2021/04/30 08:59:23;;;;;;;11.48;9.02;;;;;;;;;;5044287;28;20032;-67
2021/04/30 09:01:48;;;;;;;13.48;9.95;;;;;;;;;;5045032;28;20545;-67
2021/04/30 09:04:14;;;;;;;12.35;7.90;;;;;;;;;;5046273;28;20048;-67
2021/04/30 09:06:40;;;;;;;9.13;6.53;;;;;;;;;;5037397;28;20454;-67
2021/04/30 09:09:13;;;;;;;8.85;5.10;;;;;;;;;;5045715;28;20075;-67
2021/04/30 09:12:00;;;;;;;6.65;4.45;;;;;;;;;;5045043;28;20033;-67
2021/04/30 09:14:34;;;;;;;10.05;5.18;;;;;;;;;;5046181;28;20116;-68
2021/04/30 09:17:00;;;;;;;6.85;3.90;;;;;;;;;;5045401;28;20037;-67
2021/04/30 09:19:33;;;;;;;10.18;4.88;;;;;;;;;;5045351;28;20082;-67
2021/04/30 09:22:08;;;;;;;10.48;5.70;;;;;;;;;;5042540;28;20043;-67
2021/04/30 09:24:34;;;;;;;10.23;4.60;;;;;;;;;;5044139;28;20025;-67
2021/04/30 09:26:59;;;;;;;7.47;4.95;;;;;;;;;;5041189;28;20488;-67
2021/04/30 09:29:27;;;;;;;9.75;5.28;;;;;;;;;;5045098;28;20075;-67
2021/04/30 09:31:53;;;;;;;7.93;5.25;;;;;;;;;;5044679;28;20107;-67
2021/04/30 09:34:25;;;;;;;9.23;4.82;;;;;;;;;;5043687;28;20136;-68
2021/04/30 09:37:13;;;;;;;9.85;5.15;;;;;;;;;;5044189;28;20060;-68
2021/04/30 09:39:48;;;;;;;9.20;4.97;;;;;;;;;;5044622;28;20045;-68
2021/04/30 09:42:16;;;;;;;8.20;5.00;;;;;;;;;;5044616;28;20664;-68
2021/04/30 09:44:43;;;;;;;9.07;4.88;;;;;;;;;;5043659;28;20033;-68
2021/04/30 09:47:15;;;;;;;6.97;4.32;;;;;;;;;;5044866;28;20040;-68
2021/04/30 09:49:41;;;;;;;9.95;5.00;;;;;;;;;;5044620;28;20700;-68
2021/04/30 09:52:09;;;;;;;7.15;4.57;;;;;;;;;;5044386;28;20032;-68
2021/04/30 09:54:37;;;;;;;5.50;3.85;;;;;;;;;;5042126;28;20132;-68
2021/04/30 09:57:05;;;;;;;5.32;3.92;;;;;;;;;;5045259;28;20032;-68
2021/04/30 09:59:31;;;;;;;7.80;4.22;;;;;;;;;;5044448;28;20029;-68
2021/04/30 10:02:04;;;;;;;6.13;3.78;;;;;;;;;;5045639;28;20552;-66
2021/04/30 10:04:31;;;;;;;6.72;4.10;;;;;;;;;;5046683;28;20091;-66
2021/04/30 10:06:57;;;;;;;12.23;5.63;;;;;;;;;;5046471;28;20017;-66
2021/04/30 10:09:25;;;;;;;6.20;3.83;;;;;;;;;;5046420;28;20120;-65
2021/04/30 10:11:50;;;;;;;8.57;3.53;;;;;;;;;;5046141;28;20044;-68
2021/04/30 10:14:15;;;;;;;6.50;3.15;;;;;;;;;;5047028;28;20021;-67
2021/04/30 10:16:40;;;;;;;5.63;3.53;;;;;;;;;;5037459;28;20182;-68
2021/04/30 10:19:06;;;;;;;7.85;3.25;;;;;;;;;;5043912;28;20595;-67
2021/04/30 10:21:33;;;;;;;9.43;3.70;;;;;;;;;;5044136;28;20430;-67
2021/04/30 10:23:59;;;;;;;7.95;3.55;;;;;;;;;;5043489;28;20040;-67
2021/04/30 10:26:24;;;;;;;7.18;3.70;;;;;;;;;;5043611;28;20044;-68
2021/04/30 10:28:51;;;;;;;8.73;3.50;;;;;;;;;;5044519;28;20025;-68
2021/04/30 10:31:19;;;;;;;6.05;4.20;;;;;;;;;;5047562;28;20469;-68
2021/04/30 10:33:53;;;;;;;9.55;3.30;;;;;;;;;;5048252;28;20036;-68
2021/04/30 10:36:19;;;;;;;8.80;3.97;;;;;;;;;;5048247;28;20047;-67
2021/04/30 10:38:46;;;;;;;4.80;3.22;;;;;;;;;;5047013;28;20037;-67
2021/04/30 10:41:12;;;;;;;6.03;3.70;;;;;;;;;;5045741;28;20110;-67
2021/04/30 10:43:38;;;;;;;8.05;3.35;;;;;;;;;;5045271;28;20025;-67
2021/04/30 10:46:06;;;;;;;6.60;3.53;;;;;;;;;;5047418;28;20079;-67
2021/04/30 10:48:33;;;;;;;6.93;3.25;;;;;;;;;;5047276;28;20424;-67
2021/04/30 10:51:08;;;;;;;11.10;3.17;;;;;;;;;;5047410;28;20104;-67
2021/04/30 10:53:33;;;;;;;;;;;;;;;;;;5048008;28;20106;-67
2021/04/30 10:55:59;;;;;;;7.77;4.73;;;;;;;;;;5046767;28;20357;-67
2021/04/30 10:58:31;;;;;;;9.25;6.68;;;;;;;;;;5047310;28;20265;-67
2021/04/30 11:00:56;;;;;;;10.52;6.55;;;;;;;;;;5047141;28;20045;-66
2021/04/30 11:03:23;;;;;;;13.52;7.18;;;;;;;;;;5046998;28;20029;-66
2021/04/30 11:05:59;;;;;;;11.60;7.07;;;;;;;;;;5046229;28;20040;-67
2021/04/30 11:08:43;;;;;;;10.48;6.95;;;;;;;;;;5046040;28;20032;-67
2021/04/30 11:11:09;;;;;;;11.27;6.60;;;;;;;;;;5046261;28;20025;-67
2021/04/30 11:13:34;;;;;;;10.15;6.80;;;;;;;;;;5046000;28;20082;-67
2021/04/30 11:16:01;;;;;;;10.88;7.38;;;;;;;;;;5044753;28;20028;-67
2021/04/30 11:18:26;;;;;;;11.85;6.43;;;;;;;;;;5047524;28;20457;-66
2021/04/30 11:20:58;;;;;;;13.25;7.05;;;;;;;;;;5047291;28;20049;-66
2021/04/30 11:23:24;;;;;;;14.13;7.47;;;;;;;;;;5047073;28;20067;-67
2021/04/30 11:25:58;;;;;;;10.93;7.30;;;;;;;;;;5043510;28;20032;-67
2021/04/30 11:28:24;;;;;;;13.65;6.70;;;;;;;;;;5046240;28;20032;-67
2021/04/30 11:31:02;;;;;;;11.93;7.25;;;;;;;;;;5046886;28;20037;-66
2021/04/30 11:33:28;;;;;;;17.27;6.93;;;;;;;;;;5046527;28;20037;-67
2021/04/30 11:35:54;;;;;;;11.57;7.07;;;;;;;;;;5047000;28;20033;-67
2021/04/30 11:38:19;;;;;;;14.10;8.52;;;;;;;;;;5046742;28;20021;-67
2021/04/30 11:40:56;;;;;;;12.40;6.88;;;;;;;;;;5046721;28;20052;-67
2021/04/30 11:43:21;;;;;;;13.57;8.10;;;;;;;;;;5047256;28;20068;-66
2021/04/30 11:45:51;;;;;;;26.77;16.30;;;;;;;;;;5046553;28;20072;-67
2021/04/30 11:48:21;;;;;;;19.98;11.50;;;;;;;;;;5045404;28;20033;-66
2021/04/30 11:50:57;;;;;;;20.60;14.00;;;;;;;;;;5046043;28;20025;-67
2021/04/30 11:53:22;;;;;;;14.45;8.32;;;;;;;;;;5046290;28;20033;-67
2021/04/30 11:55:48;;;;;;;13.27;8.73;;;;;;;;;;5046083;28;20087;-67
2021/04/30 11:58:14;;;;;;;13.07;8.52;;;;;;;;;;5041259;28;20025;-66
2021/04/30 12:00:41;;;;;;;15.23;9.60;;;;;;;;;;5044569;28;20048;-66
2021/04/30 12:03:08;;;;;;;15.00;8.88;;;;;;;;;;5046156;28;20035;-66
2021/04/30 12:05:33;;;;;;;15.55;8.48;;;;;;;;;;5046367;28;20071;-67
2021/04/30 12:07:59;;;;;;;15.75;8.70;;;;;;;;;;5045255;28;20891;-66
2021/04/30 12:10:29;;;;;;;16.52;8.43;;;;;;;;;;5046168;28;20041;-67
2021/04/30 12:12:55;;;;;;;12.48;7.72;;;;;;;;;;5045390;28;20032;-67
2021/04/30 12:15:33;;;;;;;13.90;9.25;;;;;;;;;;5046100;28;20036;-67
2021/04/30 12:17:58;;;;;;;17.25;11.75;;;;;;;;;;5045183;28;20044;-67
2021/04/30 12:20:28;;;;;;;13.80;10.05;;;;;;;;;;5046046;28;20045;-67
2021/04/30 12:22:59;;;;;;;9.15;6.15;;;;;;;;;;5045522;28;20041;-67
2021/04/30 12:25:27;;;;;;;10.10;5.90;;;;;;;;;;5045119;28;20060;-67
2021/04/30 12:27:52;;;;;;;10.35;6.18;;;;;;;;;;5044927;28;20037;-67
2021/04/30 12:30:28;;;;;;;6.93;5.15;;;;;;;;;;5045755;28;20032;-67
2021/04/30 12:32:53;;;;;;;;;;;;;;;;;;5045238;28;20037;-67
2021/04/30 12:35:19;;;;;;;8.48;5.28;;;;;;;;;;5046074;28;19908;-67
2021/04/30 12:37:44;;;;;;;7.95;5.30;;;;;;;;;;5045179;28;20036;-67
2021/04/30 12:40:10;;;;;;;8.57;4.95;;;;;;;;;;5047440;28;20496;-67
2021/04/30 12:42:48;;;;;;;7.53;4.90;;;;;;;;;;5048760;28;20410;-67
2021/04/30 12:45:15;;;;;;;8.07;4.78;;;;;;;;;;5049266;28;20499;-67
2021/04/30 12:47:41;;;;;;;7.85;5.43;;;;;;;;;;5049322;28;20116;-67
2021/04/30 12:50:07;;;;;;;7.45;5.15;;;;;;;;;;5049435;28;20029;-67
2021/04/30 12:52:33;;;;;;;7.50;5.25;;;;;;;;;;5047920;28;20079;-67
2021/04/30 12:54:58;;;;;;;9.93;5.75;;;;;;;;;;5049178;28;20103;-67
2021/04/30 12:57:25;;;;;;;7.13;5.18;;;;;;;;;;5048881;28;20029;-67
2021/04/30 13:00:09;;;;;;;7.10;4.65;;;;;;;;;;5048342;28;20041;-67
2021/04/30 13:02:34;;;;;;;6.97;4.75;;;;;;;;;;5048958;28;20029;-67
2021/04/30 13:05:00;;;;;;;10.70;5.65;;;;;;;;;;5049323;28;20047;-67
2021/04/30 13:07:26;;;;;;;8.98;5.00;;;;;;;;;;5048878;28;20059;-67
2021/04/30 13:09:51;;;;;;;5.65;3.88;;;;;;;;;;5047908;28;20049;-67
2021/04/30 13:12:17;;;;;;;5.82;3.97;;;;;;;;;;5047863;28;20071;-67
2021/04/30 13:14:53;;;;;;;6.47;3.92;;;;;;;;;;5047467;28;20025;-67
2021/04/30 13:17:22;;;;;;;5.70;3.90;;;;;;;;;;5048586;28;20493;-67
2021/04/30 13:19:51;;;;;;;9.05;4.47;;;;;;;;;;5049862;28;20047;-67
2021/04/30 13:22:20;;;;;;;7.05;4.25;;;;;;;;;;5051414;28;20094;-67
2021/04/30 13:24:46;;;;;;;7.78;4.28;;;;;;;;;;5052885;28;20029;-67
2021/04/30 13:27:12;;;;;;;7.40;4.97;;;;;;;;;;5052703;28;20036;-67
2021/04/30 13:29:54;;;;;;;7.43;4.97;;;;;;;;;;5052718;28;20496;-67
2021/04/30 13:32:21;;;;;;;9.60;6.07;;;;;;;;;;5052932;28;20029;-67
2021/04/30 13:34:48;;;;;;;8.75;5.80;;;;;;;;;;5053346;28;20122;-67
2021/04/30 13:37:17;;;;;;;10.60;6.95;;;;;;;;;;5052579;28;20036;-67
2021/04/30 13:39:49;;;;;;;9.32;6.25;;;;;;;;;;5052440;28;20448;-67
2021/04/30 13:42:17;;;;;;;11.70;7.03;;;;;;;;;;5051927;28;20055;-67
2021/04/30 13:44:47;;;;;;;12.10;6.68;;;;;;;;;;5052673;28;20026;-67
2021/04/30 13:47:12;;;;;;;9.70;6.43;;;;;;;;;;5052113;28;20033;-67
2021/04/30 13:49:44;;;;;;;8.82;5.93;;;;;;;;;;5052373;28;20458;-67
2021/04/30 13:52:10;;;;;;;9.45;6.85;;;;;;;;;;5051847;28;20108;-67
2021/04/30 13:54:35;;;;;;;10.75;7.32;;;;;;;;;;5052355;28;20116;-67
2021/04/30 13:57:01;;;;;;;10.02;6.22;;;;;;;;;;5053000;28;20100;-67
2021/04/30 13:59:33;;;;;;;9.18;6.25;;;;;;;;;;5052253;28;20025;-67
2021/04/30 14:01:59;;;;;;;14.68;6.68;;;;;;;;;;5051882;28;20369;-67
2021/04/30 14:04:24;;;;;;;9.98;6.45;;;;;;;;;;5052067;28;20021;-67
2021/04/30 14:06:49;;;;;;;10.43;6.68;;;;;;;;;;5052161;28;20036;-67
2021/04/30 14:09:15;;;;;;;9.75;6.85;;;;;;;;;;5052468;28;20029;-67
2021/04/30 14:11:40;;;;;;;9.13;6.90;;;;;;;;;;5051835;28;20024;-67
2021/04/30 14:14:05;;;;;;;9.90;6.53;;;;;;;;;;5051614;28;20051;-67
2021/04/30 14:16:31;;;;;;;9.20;6.75;;;;;;;;;;5051864;28;20029;-67
2021/04/30 14:18:56;;;;;;;13.82;7.75;;;;;;;;;;5051913;28;20021;-67